Monroeton, North Carolina
Current Conditions -  °F | °C
As of 9:15 AM on Thursday 18 Dec 2014 (Local Time) from KSIF Reporting Station
Overcast Overcast  
Wind Chill: 38°   Ceiling: 12000
Heat Index: 38°   Visibility: 10mi
Dew Point: 27°   Wind: 0mph
Humidity: 64%   Direction: NA
Pressure: 30.19"   Gusts: NA
Location:  36.3355°N, 79.6561°W
Report Text: KSIF 181415Z AUTO 00000KT 10SM OVC120 04/M03 A3019 RMK AO2 T00351027
Loading
Personal Weather Stations






























Interactive Weather Map New forecast layout! Learn more

10-Day Weather Forecast

Advertisements
Track Severe Weather on mobile